createdAt,value
2018-09-02T00:02:24.286Z,13.50
2018-09-02T00:04:54.676Z,14.07
2018-09-02T00:07:23.857Z,14.77
2018-09-02T00:09:52.881Z,14.57
2018-09-02T00:12:23.229Z,14.97
2018-09-02T00:14:52.434Z,14.60
2018-09-02T00:17:21.542Z,15.07
2018-09-02T00:19:51.447Z,15.70
2018-09-02T00:22:20.765Z,13.97
2018-09-02T00:24:49.811Z,14.87
2018-09-02T00:27:19.105Z,15.20
2018-09-02T00:29:48.211Z,14.90
2018-09-02T00:32:17.238Z,15.30
2018-09-02T00:34:46.266Z,14.63
2018-09-02T00:37:15.385Z,15.03
2018-09-02T00:39:44.372Z,15.60
2018-09-02T00:42:13.914Z,15.00
2018-09-02T00:44:43.005Z,14.50
2018-09-02T00:47:12.023Z,15.93
2018-09-02T00:49:41.009Z,15.87
2018-09-02T00:52:10.078Z,14.70
2018-09-02T00:54:39.156Z,14.97
2018-09-02T00:57:08.356Z,14.33
2018-09-02T00:59:37.860Z,15.33
2018-09-02T01:02:07.149Z,14.87
2018-09-02T01:04:36.534Z,13.80
2018-09-02T01:07:05.963Z,16.37
2018-09-02T01:09:35.052Z,16.83
2018-09-02T01:12:04.078Z,15.73
2018-09-02T01:14:33.196Z,14.90
2018-09-02T01:17:04.077Z,15.57
2018-09-02T01:19:33.247Z,14.00
2018-09-02T01:22:02.360Z,16.10
2018-09-02T01:24:32.145Z,14.63
2018-09-02T01:27:01.813Z,14.97
2018-09-02T01:29:30.921Z,15.37
2018-09-02T01:32:00.182Z,14.20
2018-09-02T01:34:29.061Z,16.83
2018-09-02T01:36:58.175Z,15.93
2018-09-02T01:39:28.514Z,15.20
2018-09-02T01:41:58.311Z,15.87
2018-09-02T01:44:27.340Z,16.30
2018-09-02T01:46:57.301Z,15.57
2018-09-02T01:49:26.411Z,15.60
2018-09-02T01:51:55.557Z,15.90
2018-09-02T01:54:24.753Z,15.70
2018-09-02T01:56:53.553Z,16.63
2018-09-02T01:59:22.652Z,16.23
2018-09-02T02:01:51.810Z,16.37
2018-09-02T02:04:20.978Z,15.40
2018-09-02T02:06:50.179Z,16.50
2018-09-02T02:09:21.138Z,14.97
2018-09-02T02:11:50.262Z,16.17
2018-09-02T02:14:19.378Z,17.00
2018-09-02T02:16:49.508Z,16.10
2018-09-02T02:19:18.614Z,14.33
2018-09-02T02:21:47.937Z,15.07
2018-09-02T02:24:18.478Z,15.53
2018-09-02T02:26:47.633Z,16.43
2018-09-02T02:29:16.712Z,15.97
2018-09-02T02:31:46.805Z,16.30
2018-09-02T02:34:16.165Z,16.00
2018-09-02T02:36:45.369Z,15.33
2018-09-02T02:39:14.720Z,15.93
2018-09-02T02:41:44.012Z,16.03
2018-09-02T02:44:13.032Z,17.23
2018-09-02T02:46:43.663Z,16.93
2018-09-02T02:49:12.779Z,16.03
2018-09-02T02:51:42.005Z,18.87
2018-09-02T02:54:12.127Z,17.20
2018-09-02T02:56:41.146Z,18.20
2018-09-02T02:59:10.160Z,17.37
2018-09-02T03:01:39.204Z,16.63
2018-09-02T03:04:08.292Z,15.90
2018-09-02T03:06:37.486Z,17.93
2018-09-02T03:09:08.296Z,16.87
2018-09-02T03:11:38.174Z,17.77
2018-09-02T03:14:07.464Z,17.77
2018-09-02T03:16:36.782Z,18.77
2018-09-02T03:19:05.937Z,17.90
2018-09-02T03:21:35.861Z,16.80
2018-09-02T03:24:05.109Z,19.27
2018-09-02T03:26:34.189Z,18.10
2018-09-02T03:29:03.479Z,18.20
2018-09-02T03:31:32.495Z,19.43
2018-09-02T03:34:01.622Z,20.93
2018-09-02T03:36:30.983Z,20.33
2018-09-02T03:39:00.063Z,19.67
2018-09-02T03:41:29.070Z,20.43
2018-09-02T03:43:59.656Z,21.10
2018-09-02T03:46:28.828Z,19.67
2018-09-02T03:48:57.760Z,21.90
2018-09-02T03:51:27.285Z,20.20
2018-09-02T03:53:56.366Z,20.80
2018-09-02T03:56:25.597Z,19.63
2018-09-02T03:58:55.158Z,19.43
2018-09-02T04:01:24.386Z,21.20
2018-09-02T04:03:53.560Z,20.67
2018-09-02T04:06:22.870Z,19.90
2018-09-02T04:08:52.062Z,21.33
2018-09-02T04:11:21.168Z,21.27
2018-09-02T04:13:51.783Z,21.20
2018-09-02T04:16:21.054Z,20.27
2018-09-02T04:18:50.362Z,21.47
2018-09-02T04:21:21.354Z,20.00
2018-09-02T04:23:50.431Z,20.23
2018-09-02T04:26:19.316Z,21.70
2018-09-02T04:28:50.432Z,19.40
2018-09-02T04:31:19.715Z,23.00
2018-09-02T04:33:48.881Z,23.93
2018-09-02T04:36:19.051Z,21.97
2018-09-02T04:38:48.285Z,22.53
2018-09-02T04:41:17.434Z,22.03
2018-09-02T04:43:48.018Z,24.90
2018-09-02T04:46:17.057Z,24.13
2018-09-02T04:48:46.115Z,20.60
2018-09-02T04:51:16.558Z,24.47
2018-09-02T04:53:45.513Z,23.33
2018-09-02T04:56:14.526Z,21.07
2018-09-02T04:58:47.116Z,17.30
2018-09-02T05:01:16.213Z,17.93
2018-09-02T05:03:45.355Z,18.70
2018-09-02T05:06:15.302Z,16.80
2018-09-02T05:08:44.493Z,17.53
2018-09-02T05:11:14.016Z,18.10
2018-09-02T05:13:43.177Z,18.60
2018-09-02T05:16:12.338Z,18.07
2018-09-02T05:18:41.574Z,17.33
2018-09-02T05:21:10.678Z,18.50
2018-09-02T05:23:39.786Z,17.27
2018-09-02T05:26:09.208Z,17.93
2018-09-02T05:28:38.199Z,20.37
2018-09-02T05:31:07.234Z,17.93
2018-09-02T05:33:36.943Z,22.63
2018-09-02T05:36:06.360Z,17.77
2018-09-02T05:38:35.727Z,52.70
2018-09-02T05:41:04.928Z,21.07
2018-09-02T05:43:34.019Z,19.57
2018-09-02T05:46:03.229Z,19.73
2018-09-02T05:48:33.240Z,17.43
2018-09-02T05:51:02.072Z,16.40
2018-09-02T05:53:31.297Z,17.73
2018-09-02T05:56:00.433Z,17.03
2018-09-02T05:58:29.513Z,16.27
2018-09-02T06:00:58.718Z,16.40
2018-09-02T06:03:28.194Z,15.97
2018-09-02T06:05:58.074Z,16.63
2018-09-02T06:08:27.017Z,15.53
2018-09-02T06:10:56.761Z,16.97
2018-09-02T06:13:25.617Z,16.10
2018-09-02T06:15:54.636Z,16.00
2018-09-02T06:18:25.178Z,16.40
2018-09-02T06:20:54.190Z,16.50
2018-09-02T06:23:23.292Z,16.27
2018-09-02T06:25:52.245Z,16.23
2018-09-02T06:28:21.213Z,16.77
2018-09-02T06:30:50.330Z,17.23
2018-09-02T06:33:20.185Z,16.70
2018-09-02T06:35:49.287Z,15.40
2018-09-02T06:38:18.498Z,16.00
2018-09-02T06:40:48.285Z,23.67
2018-09-02T06:43:17.327Z,17.10
2018-09-02T06:45:46.534Z,18.00
2018-09-02T06:48:19.815Z,17.67
2018-09-02T06:50:49.220Z,24.97
2018-09-02T06:53:18.246Z,17.43
2018-09-02T06:55:47.048Z,19.57
2018-09-02T06:58:16.112Z,21.57
2018-09-02T07:00:45.214Z,20.33
2018-09-02T07:03:15.073Z,18.60
2018-09-02T07:05:44.286Z,31.60
2018-09-02T07:08:13.791Z,22.23
2018-09-02T07:10:43.512Z,18.20
2018-09-02T07:13:12.712Z,18.47
2018-09-02T07:15:41.849Z,19.93
2018-09-02T07:18:10.872Z,19.50
2018-09-02T07:20:40.079Z,17.37
2018-09-02T07:23:10.518Z,16.03
2018-09-02T07:25:39.621Z,16.10
2018-09-02T07:28:08.725Z,22.97
2018-09-02T07:30:38.964Z,17.27
2018-09-02T07:33:07.785Z,17.40
2018-09-02T07:35:36.622Z,15.70
2018-09-02T07:38:06.762Z,15.20
2018-09-02T07:40:35.549Z,20.00
2018-09-02T07:43:04.360Z,14.73
2018-09-02T07:45:34.391Z,18.17
2018-09-02T07:48:03.195Z,18.20
2018-09-02T07:50:32.011Z,14.10
2018-09-02T07:53:03.665Z,15.47
2018-09-02T07:55:32.470Z,15.57
2018-09-02T07:58:01.250Z,13.67
2018-09-02T08:00:30.298Z,17.10
2018-09-02T08:02:59.383Z,16.27
2018-09-02T08:05:28.505Z,14.20
2018-09-02T08:07:57.840Z,12.60
2018-09-02T08:10:26.930Z,13.53
2018-09-02T08:12:57.418Z,14.93
2018-09-02T08:15:26.680Z,14.63
2018-09-02T08:17:55.805Z,12.17
2018-09-02T08:20:25.100Z,15.03
2018-09-02T08:22:55.693Z,11.07
2018-09-02T08:25:25.409Z,12.40
2018-09-02T08:27:54.479Z,12.07
2018-09-02T08:30:25.895Z,11.53
2018-09-02T08:32:55.012Z,13.70
2018-09-02T08:35:24.185Z,11.97
2018-09-02T08:37:53.339Z,12.10
2018-09-02T08:40:22.321Z,12.47
2018-09-02T08:42:51.095Z,12.83
2018-09-02T08:45:25.346Z,11.80
2018-09-02T08:47:54.207Z,11.40
2018-09-02T08:50:23.078Z,11.50
2018-09-02T08:52:52.678Z,11.50
2018-09-02T08:55:21.695Z,11.07
2018-09-02T08:57:50.845Z,10.90
2018-09-02T09:00:20.349Z,13.23
2018-09-02T09:02:50.286Z,14.03
2018-09-02T09:05:19.589Z,17.20
2018-09-02T09:07:49.064Z,12.03
2018-09-02T09:10:17.909Z,12.90
2018-09-02T09:12:47.026Z,12.83
2018-09-02T09:15:16.153Z,14.03
2018-09-02T09:17:45.269Z,15.20
2018-09-02T09:20:14.105Z,16.37
2018-09-02T09:22:42.938Z,13.27
2018-09-02T09:25:12.041Z,15.07
2018-09-02T09:27:41.129Z,14.07
2018-09-02T09:30:10.618Z,15.67
2018-09-02T09:32:40.199Z,14.87
2018-09-02T09:35:09.251Z,8.50
2018-09-02T09:37:38.304Z,8.67
2018-09-02T09:40:07.531Z,8.77
2018-09-02T09:42:36.726Z,7.90
2018-09-02T09:45:05.922Z,9.03
2018-09-02T09:47:35.016Z,8.20
2018-09-02T09:50:04.094Z,7.83
2018-09-02T09:52:33.252Z,7.13
2018-09-02T09:55:09.329Z,7.07
2018-09-02T09:57:38.433Z,6.90
2018-09-02T10:00:07.654Z,6.87
2018-09-02T10:02:37.990Z,8.20
2018-09-02T10:05:07.205Z,6.37
2018-09-02T10:07:36.109Z,8.53
2018-09-02T10:10:05.463Z,6.47
2018-09-02T10:12:34.653Z,6.07
2018-09-02T10:15:03.868Z,7.70
2018-09-02T10:17:32.892Z,6.47
2018-09-02T10:20:02.079Z,6.63
2018-09-02T10:22:32.823Z,5.40
2018-09-02T10:25:01.943Z,11.67
2018-09-02T10:27:31.127Z,8.37
2018-09-02T10:30:00.531Z,9.50
2018-09-02T10:32:36.202Z,5.37
2018-09-02T10:35:08.414Z,5.77
2018-09-02T10:37:38.162Z,5.60
2018-09-02T10:40:08.565Z,5.90
2018-09-02T10:42:37.371Z,6.03
2018-09-02T10:45:06.493Z,5.70
2018-09-02T10:47:35.355Z,5.60
2018-09-02T10:50:04.253Z,5.67
2018-09-02T10:52:33.049Z,6.20
2018-09-02T10:55:02.805Z,5.80
2018-09-02T10:57:31.983Z,5.83
2018-09-02T11:00:01.431Z,7.70
2018-09-02T11:02:30.604Z,6.67
2018-09-02T11:04:59.531Z,7.33
2018-09-02T11:07:31.147Z,5.80
2018-09-02T11:10:00.442Z,6.43
2018-09-02T11:12:29.599Z,10.00
2018-09-02T11:14:58.589Z,6.90
2018-09-02T11:17:27.742Z,5.53
2018-09-02T11:19:56.543Z,5.93
2018-09-02T11:22:25.576Z,6.70
2018-09-02T11:24:54.663Z,5.90
2018-09-02T11:27:23.801Z,6.70
2018-09-02T11:29:53.480Z,6.57
2018-09-02T11:32:22.624Z,7.57
2018-09-02T11:34:51.872Z,7.40
2018-09-02T11:37:20.903Z,8.70
2018-09-02T11:39:50.083Z,10.20
2018-09-02T11:42:23.158Z,6.10
2018-09-02T11:44:54.336Z,6.70
2018-09-02T11:47:23.780Z,6.47
2018-09-02T11:49:54.918Z,6.87
2018-09-02T11:52:25.386Z,7.70
2018-09-02T11:54:54.520Z,9.53
2018-09-02T11:57:26.194Z,6.20
2018-09-02T12:00:59.337Z,6.63
2018-09-02T12:03:30.712Z,9.13
2018-09-02T12:06:03.999Z,6.47
2018-09-02T12:08:34.384Z,8.60
2018-09-02T12:11:09.924Z,6.13
2018-09-02T12:13:39.837Z,6.40
2018-09-02T12:16:09.799Z,5.80
2018-09-02T12:18:38.979Z,7.00
2018-09-02T12:21:11.042Z,8.33
2018-09-02T12:23:40.219Z,6.80
2018-09-02T12:26:11.063Z,6.40
2018-09-02T12:28:42.987Z,8.80
2018-09-02T12:31:12.300Z,7.87
2018-09-02T12:33:41.301Z,6.10
2018-09-02T12:36:11.326Z,8.83
2018-09-02T12:38:42.174Z,8.50
2018-09-02T12:41:11.846Z,6.83
2018-09-02T12:43:40.888Z,7.03
2018-09-02T12:46:11.393Z,8.20
2018-09-02T12:48:40.529Z,8.30
2018-09-02T12:51:09.771Z,7.00
2018-09-02T12:53:39.003Z,7.20
2018-09-02T12:56:09.255Z,9.00
2018-09-02T12:58:38.849Z,9.30
2018-09-02T13:01:11.103Z,7.80
2018-09-02T13:03:40.106Z,7.90
2018-09-02T13:06:14.862Z,11.10
2018-09-02T13:08:45.211Z,7.27
2018-09-02T13:11:16.005Z,7.63
2018-09-02T13:13:45.599Z,7.13
2018-09-02T13:16:14.633Z,6.80
2018-09-02T13:18:43.912Z,6.90
2018-09-02T13:21:13.269Z,6.93
2018-09-02T13:23:46.058Z,11.50
2018-09-02T13:26:16.010Z,8.17
2018-09-02T13:28:45.269Z,7.00
2018-09-02T13:31:16.258Z,7.23
2018-09-02T13:33:45.084Z,13.77
2018-09-02T13:36:14.164Z,8.77
2018-09-02T13:38:43.459Z,7.33
2018-09-02T13:41:13.054Z,6.57
2018-09-02T13:43:42.997Z,7.87
2018-09-02T13:46:12.043Z,7.50
2018-09-02T13:48:40.823Z,8.40
2018-09-02T13:51:10.150Z,8.67
2018-09-02T13:53:39.112Z,7.80
2018-09-02T13:56:08.770Z,8.07
2018-09-02T13:58:39.336Z,7.40
2018-09-02T14:01:10.056Z,7.63
2018-09-02T14:03:38.789Z,7.30
2018-09-02T14:06:08.128Z,11.03
2018-09-02T14:08:37.158Z,8.83
2018-09-02T14:11:06.079Z,8.63
2018-09-02T14:13:36.046Z,7.60
2018-09-02T14:16:07.294Z,9.40
2018-09-02T14:18:37.181Z,11.10
2018-09-02T14:21:06.304Z,8.80
2018-09-02T14:23:35.210Z,9.93
2018-09-02T14:26:04.882Z,8.17
2018-09-02T14:28:34.750Z,8.07
2018-09-02T14:31:04.203Z,8.00
2018-09-02T14:33:33.068Z,8.03
2018-09-02T14:36:02.118Z,8.10
2018-09-02T14:38:31.837Z,7.60
2018-09-02T14:41:01.213Z,11.60
2018-09-02T14:43:30.650Z,8.43
2018-09-02T14:46:00.384Z,9.23
2018-09-02T14:48:29.176Z,8.40
2018-09-02T14:50:58.411Z,10.37
2018-09-02T14:53:28.900Z,7.80
2018-09-02T14:55:57.926Z,7.93
2018-09-02T14:58:26.972Z,8.23
2018-09-02T15:00:56.289Z,7.63
2018-09-02T15:03:25.229Z,10.13
2018-09-02T15:05:56.789Z,10.00
2018-09-02T15:08:26.304Z,9.53
2018-09-02T15:10:56.701Z,8.47
2018-09-02T15:13:25.774Z,8.33
2018-09-02T15:15:55.940Z,9.37
2018-09-02T15:18:24.945Z,9.53
2018-09-02T15:20:53.966Z,8.23
2018-09-02T15:23:24.569Z,8.50
2018-09-02T15:25:53.517Z,7.83
2018-09-02T15:28:22.777Z,11.43
2018-09-02T15:30:52.076Z,10.43
2018-09-02T15:33:22.342Z,8.23
2018-09-02T15:35:52.734Z,9.07
2018-09-02T15:38:23.356Z,9.70
2018-09-02T15:40:52.461Z,10.40
2018-09-02T15:43:21.618Z,9.40
2018-09-02T15:45:50.439Z,8.13
2018-09-02T15:48:19.356Z,8.97
2018-09-02T15:50:49.186Z,9.87
2018-09-02T15:53:18.574Z,8.90
2018-09-02T15:55:47.502Z,11.93
2018-09-02T15:58:16.504Z,8.40
2018-09-02T16:00:45.327Z,10.70
2018-09-02T16:03:14.528Z,10.27
2018-09-02T16:05:43.702Z,11.80
2018-09-02T16:08:13.056Z,11.50
2018-09-02T16:10:42.196Z,12.03
2018-09-02T16:13:11.297Z,10.57
2018-09-02T16:15:40.358Z,9.60
2018-09-02T16:18:09.491Z,10.07
2018-09-02T16:20:39.129Z,9.90
2018-09-02T16:23:07.980Z,9.80
2018-09-02T16:25:37.061Z,11.13
2018-09-02T16:28:05.930Z,14.83
2018-09-02T16:30:35.029Z,11.00
2018-09-02T16:33:04.155Z,13.30
2018-09-02T16:35:34.038Z,12.40
2018-09-02T16:38:03.210Z,9.60
2018-09-02T16:40:32.476Z,10.87
2018-09-02T16:43:02.948Z,18.10
2018-09-02T16:45:32.112Z,12.40
2018-09-02T16:48:01.200Z,22.37
2018-09-02T16:50:31.595Z,13.87
2018-09-02T16:53:00.568Z,50.40
2018-09-02T16:55:29.336Z,63.97
2018-09-02T16:57:58.613Z,32.70
2018-09-02T17:00:27.707Z,13.87
2018-09-02T17:02:57.140Z,11.70
2018-09-02T17:05:27.029Z,12.33
2018-09-02T17:07:55.859Z,14.90
2018-09-02T17:10:24.996Z,15.17
2018-09-02T17:12:54.106Z,12.40
2018-09-02T17:15:23.338Z,10.00
2018-09-02T17:17:52.517Z,11.43
2018-09-02T17:20:31.912Z,35.70
2018-09-02T17:23:06.117Z,19.67
2018-09-02T17:25:35.494Z,11.83
2018-09-02T17:28:04.719Z,18.93
2018-09-02T17:30:33.854Z,11.10
2018-09-02T17:33:03.858Z,13.00
2018-09-02T17:35:32.987Z,11.50
2018-09-02T17:38:02.118Z,12.80
2018-09-02T17:40:32.353Z,10.20
2018-09-02T17:43:01.630Z,12.47
2018-09-02T17:45:31.605Z,19.50
2018-09-02T17:48:01.015Z,16.17
2018-09-02T17:50:30.584Z,13.20
2018-09-02T17:52:59.746Z,11.20
2018-09-02T17:55:29.940Z,15.50
2018-09-02T17:57:58.832Z,10.70
2018-09-02T18:00:31.491Z,10.00
2018-09-02T18:03:00.703Z,10.63
2018-09-02T18:05:30.947Z,12.70
2018-09-02T18:08:00.239Z,13.40
2018-09-02T18:10:29.394Z,15.60
2018-09-02T18:12:58.591Z,15.20
2018-09-02T18:15:27.603Z,11.70
2018-09-02T18:17:56.715Z,11.27
2018-09-02T18:20:26.361Z,10.70
2018-09-02T18:22:56.329Z,11.80
2018-09-02T18:25:25.465Z,10.37
2018-09-02T18:27:57.333Z,14.13
2018-09-02T18:30:26.694Z,11.40
2018-09-02T18:35:25.823Z,12.43
2018-09-02T18:37:54.922Z,11.17
2018-09-02T18:40:24.040Z,11.77
2018-09-02T18:42:53.302Z,22.13
2018-09-02T18:45:23.074Z,14.83
2018-09-02T18:47:52.326Z,12.23
2018-09-02T18:50:21.552Z,13.93
2018-09-02T18:52:50.778Z,12.00
2018-09-02T18:55:19.950Z,12.83
2018-09-02T18:57:49.093Z,10.83
2018-09-02T19:00:18.071Z,12.43
2018-09-02T19:02:47.256Z,11.53
2018-09-02T19:05:17.309Z,10.37
2018-09-02T19:07:46.127Z,14.50
2018-09-02T19:10:15.347Z,10.63
2018-09-02T19:12:44.486Z,11.60
2018-09-02T19:15:13.786Z,9.97
2018-09-02T19:17:42.882Z,11.63
2018-09-02T19:20:12.661Z,10.77
2018-09-02T19:22:41.542Z,10.53
2018-09-02T19:25:10.369Z,12.10
2018-09-02T19:27:40.019Z,13.93
2018-09-02T19:30:09.272Z,11.53
2018-09-02T19:32:38.593Z,10.70
2018-09-02T19:35:09.151Z,10.67
2018-09-02T19:37:38.342Z,13.50
2018-09-02T19:40:07.980Z,10.20
2018-09-02T19:42:37.298Z,19.80
2018-09-02T19:45:07.013Z,10.77
2018-09-02T19:47:36.301Z,11.33
2018-09-02T19:50:05.799Z,10.70
2018-09-02T19:52:34.880Z,11.40
2018-09-02T19:55:03.974Z,11.60
2018-09-02T19:57:33.119Z,12.20
2018-09-02T20:00:02.318Z,9.70
2018-09-02T20:02:31.337Z,13.97
2018-09-02T20:05:00.702Z,11.80
2018-09-02T20:07:29.504Z,11.47
2018-09-02T20:09:58.703Z,10.53
2018-09-02T20:12:28.065Z,14.17
2018-09-02T20:14:57.259Z,12.63
2018-09-02T20:17:26.409Z,11.13
2018-09-02T20:19:55.470Z,11.43
2018-09-02T20:22:24.253Z,9.73
2018-09-02T20:24:53.048Z,10.53
2018-09-02T20:27:22.661Z,10.67
2018-09-02T20:29:51.449Z,11.10
2018-09-02T20:32:20.235Z,11.30
2018-09-02T20:34:50.231Z,15.60
2018-09-02T20:37:19.011Z,10.50
2018-09-02T20:39:47.881Z,12.10
2018-09-02T20:42:17.457Z,10.70
2018-09-02T20:44:46.355Z,12.40
2018-09-02T20:47:15.213Z,13.10
2018-09-02T20:49:47.479Z,10.07
2018-09-02T20:52:16.319Z,10.40
2018-09-02T20:54:45.173Z,11.10
2018-09-02T20:57:14.431Z,10.63
2018-09-02T20:59:43.514Z,10.73
2018-09-02T21:02:12.599Z,10.77
2018-09-02T21:04:44.393Z,10.07
2018-09-02T21:07:13.472Z,11.03
2018-09-02T21:09:42.645Z,11.73
2018-09-02T21:12:13.512Z,12.40
2018-09-02T21:14:44.033Z,12.70
2018-09-02T21:17:13.844Z,10.73
2018-09-02T21:19:46.000Z,10.60
2018-09-02T21:22:15.995Z,10.30
2018-09-02T21:24:45.940Z,10.33
2018-09-02T21:27:15.886Z,12.70
2018-09-02T21:29:47.126Z,11.50
2018-09-02T21:32:16.610Z,9.93
2018-09-02T21:34:46.463Z,10.30
2018-09-02T21:37:17.014Z,10.07
2018-09-02T21:39:47.285Z,9.83
2018-09-02T21:42:17.352Z,11.57
2018-09-02T21:44:46.872Z,10.63
2018-09-02T21:47:16.300Z,13.10
2018-09-02T21:49:46.020Z,12.50
2018-09-02T21:52:16.756Z,15.60
2018-09-02T21:54:46.629Z,14.17
2018-09-02T21:57:17.179Z,12.37
2018-09-02T21:59:46.882Z,10.33
2018-09-02T22:02:16.852Z,12.40
2018-09-02T22:04:48.888Z,11.53
2018-09-02T22:07:17.838Z,11.30
2018-09-02T22:09:47.686Z,9.67
2018-09-02T22:12:19.527Z,10.20
2018-09-02T22:14:49.175Z,12.00
2018-09-02T22:17:18.892Z,10.83
2018-09-02T22:19:49.487Z,11.00
2018-09-02T22:22:20.170Z,11.00
2018-09-02T22:24:50.806Z,11.20
2018-09-02T22:27:20.712Z,10.13
2018-09-02T22:29:50.811Z,11.43
2018-09-02T22:32:20.327Z,16.17
2018-09-02T22:34:50.600Z,10.00
2018-09-02T22:37:20.006Z,11.93
2018-09-02T22:39:49.759Z,11.23
2018-09-02T22:42:19.061Z,11.00
2018-09-02T22:44:48.946Z,14.23
2018-09-02T22:47:18.762Z,9.50
2018-09-02T22:49:48.530Z,9.43
2018-09-02T22:52:18.479Z,9.83
2018-09-02T22:54:47.584Z,10.83
2018-09-02T22:57:17.551Z,10.23
2018-09-02T22:59:47.784Z,12.43
2018-09-02T23:02:17.181Z,12.67
2018-09-02T23:04:48.097Z,15.30
2018-09-02T23:07:18.577Z,10.17
2018-09-02T23:09:48.833Z,10.40
2018-09-02T23:12:19.017Z,10.23
2018-09-02T23:14:48.842Z,9.80
2018-09-02T23:17:18.468Z,10.70
2018-09-02T23:19:48.850Z,13.20
2018-09-02T23:22:18.501Z,10.60
2018-09-02T23:24:48.726Z,9.80
2018-09-02T23:27:19.329Z,10.87
2018-09-02T23:29:50.241Z,10.00
2018-09-02T23:32:20.309Z,11.07
2018-09-02T23:34:50.149Z,10.87
2018-09-02T23:37:19.958Z,11.43
2018-09-02T23:39:51.512Z,10.43
2018-09-02T23:42:21.510Z,13.20
2018-09-02T23:44:51.007Z,12.83
2018-09-02T23:47:20.935Z,13.70
2018-09-02T23:49:51.049Z,13.83
2018-09-02T23:52:22.167Z,13.77
2018-09-02T23:54:52.267Z,12.77
2018-09-02T23:57:21.726Z,10.80
2018-09-02T23:59:52.539Z,14.07
